Date,TemperatureHighF,TemperatureAvgF,TemperatureLowF,DewpointHighF,DewpointAvgF,DewpointLowF,HumidityHigh,HumidityAvg,HumidityLow,PressureMaxIn,PressureMinIn,WindSpeedMaxMPH,WindSpeedAvgMPH,GustSpeedMaxMPH,PrecipitationSumIn
2013-1-1,18.9,8.7,1.9,7.5,3.1,-0.5,90,78,58,29.82,29.72,7,4,11,0.00
2013-1-2,28.2,19.9,6.6,21.6,13.2,1.4,90,76,52,29.75,29.64,11,4,17,0.00
2013-1-3,26.2,21.7,12.0,21.9,18.7,9.2,95,88,80,29.82,29.63,12,6,17,0.00
2013-1-4,30.6,20.8,9.7,20.5,15.4,6.3,91,80,65,29.78,29.67,14,8,23,0.00
2013-1-5,36.0,27.9,15.1,33.7,25.7,14.2,100,92,73,29.81,29.48,12,5,17,0.07
2013-1-6,33.8,25.9,14.9,33.6,23.2,14.7,100,90,75,29.89,29.47,11,6,15,0.00
2013-1-7,40.3,27.3,13.8,28.4,22.2,13.1,100,82,61,29.87,29.66,18,7,23,0.01
2013-1-8,42.4,34.1,24.4,32.6,29.6,24.2,100,85,66,29.73,29.57,16,7,22,0.00
2013-1-9,43.3,35.9,27.5,33.6,28.7,23.5,91,76,57,30.07,29.54,19,8,29,0.07
2013-1-10,42.4,32.1,20.5,36.2,29.5,19.5,100,91,74,30.10,29.51,17,6,22,0.52
2013-1-11,51.8,44.2,36.5,50.8,43.8,36.2,100,99,94,29.51,29.26,20,8,27,0.11
2013-1-12,51.6,38.2,24.6,50.2,34.1,21.6,100,85,70,29.63,29.27,17,9,25,0.00
2013-1-13,24.8,18.4,12.2,23.7,14.4,6.6,100,84,76,29.79,29.50,12,7,19,0.00
2013-1-14,27.3,15.6,7.5,12.7,8.6,4.8,89,74,51,30.03,29.80,8,3,11,0.00
2013-1-15,34.3,20.4,8.8,19.3,13.9,7.5,97,77,48,30.01,29.68,9,3,14,0.00
2013-1-16,33.1,26.2,15.6,31.4,20.9,10.2,94,80,63,29.69,29.38,13,7,21,0.00
2013-1-17,29.1,20.0,10.6,19.7,9.8,4.3,86,65,46,29.99,29.66,12,5,15,0.00
2013-1-18,41.4,28.9,9.9,33.7,23.5,6.8,90,80,68,30.01,29.44,26,10,34,0.12
2013-1-19,45.1,37.7,18.0,37.3,30.8,7.5,89,77,41,29.51,29.28,26,10,36,0.25
2013-1-20,18.0,10.6,6.3,7.1,1.0,-1.0,74,65,52,29.88,29.52,17,7,21,0.00
2013-1-21,9.7,3.4,-4.0,4.7,-4.5,-11.1,85,69,53,29.85,29.70,13,7,20,0.00
2013-1-22,7.7,0.0,-8.3,-3.2,-8.1,-14.1,79,68,53,29.94,29.84,11,6,17,0.00
2013-1-23,17.4,10.3,-0.4,13.8,4.7,-5.9,93,77,65,29.96,29.67,18,6,21,0.00
2013-1-24,20.3,10.1,-1.1,10.1,1.5,-5.9,80,68,54,30.21,29.94,13,5,17,0.00
2013-1-25,24.8,19.0,15.1,18.9,13.7,5.3,97,80,59,29.94,29.54,16,7,17,0.00
2013-1-26,30.7,18.5,6.6,14.3,9.5,4.2,89,69,44,29.97,29.77,9,4,11,0.00
2013-1-27,33.1,26.9,21.9,32.8,23.7,14.0,99,88,70,29.94,29.48,15,8,20,0.00
2013-1-28,47.1,37.8,33.1,39.3,36.3,32.8,100,95,71,29.57,29.39,13,4,14,0.18
2013-1-29,59.2,46.2,35.6,58.9,45.9,35.3,99,99,99,29.44,29.07,18,5,23,0.97
2013-1-30,36.0,28.0,15.1,35.7,27.4,13.2,100,98,91,29.19,28.89,9,2,15,0.09
2013-1-31,15.4,10.5,1.0,13.4,5.9,-3.3,92,81,69,29.69,29.20,11,2,15,0.00
2013-2-1,8.2,2.0,-5.4,5.3,-3.4,-8.4,94,78,61,29.90,29.70,11,6,17,0.00
2013-2-2,12.7,7.2,-0.2,8.4,3.3,-4.1,97,84,67,29.70,29.59,8,3,9,0.00
2013-2-3,21.0,12.0,1.4,12.3,7.3,-1.9,93,81,62,29.62,29.51,14,4,18,0.00
2013-2-4,18.9,13.4,5.5,14.8,10.1,1.6,96,86,71,29.59,29.50,10,4,13,0.00
2013-2-5,27.1,18.0,1.2,25.9,15.2,-1.9,97,88,79,29.68,29.37,12,5,15,0.00
2013-2-6,34.9,23.4,5.2,30.8,18.7,4.1,97,83,64,29.81,29.67,9,4,13,0.01
2013-2-7,33.6,31.4,21.4,33.4,30.8,21.1,100,98,92,29.69,29.49,7,2,9,0.01
2013-2-8,23.9,19.3,9.1,22.2,18.4,8.5,100,96,90,29.97,29.61,0,0,0,0.00
2013-2-9,28.4,20.5,7.3,26.4,19.8,6.9,100,97,91,29.97,29.66,0,0,1,0.00
2013-2-10,44.4,34.3,24.3,44.2,34.0,24.0,100,99,87,29.67,29.04,23,8,26,0.30
2013-2-11,40.6,30.9,25.5,37.1,27.7,21.9,95,88,81,29.57,29.04,18,12,27,0.13
2013-2-12,30.2,23.5,20.3,22.2,19.9,17.4,100,86,70,29.66,29.47,12,5,15,0.00
2013-2-13,43.9,30.6,19.4,32.7,27.1,19.2,100,88,64,29.46,29.30,11,3,15,0.00
2013-2-14,35.8,33.1,27.7,35.5,30.2,22.3,100,90,76,29.56,29.18,13,7,18,0.01
2013-2-15,28.2,21.2,12.0,26.8,13.1,6.0,100,72,51,29.77,29.56,14,6,16,0.00
2013-2-16,17.8,9.8,2.5,6.4,2.5,-2.6,87,72,54,29.76,29.70,11,4,16,0.00
2013-2-17,27.7,16.1,-1.3,14.9,5.5,-4.8,89,65,42,29.77,29.56,10,4,15,0.00
2013-2-18,47.5,35.4,23.7,43.8,30.5,15.0,100,83,69,29.55,29.04,18,9,23,0.37
2013-2-19,29.8,13.5,6.4,29.6,11.0,1.5,100,90,79,29.72,29.12,0,0,0,0.00
2013-2-20,21.9,11.8,4.1,12.6,6.4,0.2,90,78,66,29.96,29.72,8,1,9,0.00
2013-2-21,25.7,19.2,9.1,25.1,17.4,7.5,100,92,81,29.99,29.65,17,7,25,0.00
2013-2-22,31.1,26.9,23.7,30.7,26.6,23.5,100,99,95,29.65,29.39,17,6,20,0.00
2013-2-23,31.6,25.2,20.3,26.0,21.6,17.5,100,86,70,29.52,29.45,9,5,15,0.01
2013-2-24,42.4,27.1,16.2,29.0,21.3,15.5,100,81,58,29.74,29.53,7,2,9,0.01
2013-2-25,46.0,29.7,15.1,32.0,24.2,14.9,100,82,54,29.77,29.63,8,3,11,0.00
2013-2-26,34.0,31.9,29.8,31.6,29.5,26.9,99,91,76,29.63,29.20,21,12,28,0.00
2013-2-27,32.9,30.6,28.0,32.7,30.4,27.8,99,99,99,29.35,29.18,16,9,17,0.02
2013-2-28,33.4,29.9,23.7,31.8,28.0,21.0,100,92,83,29.70,29.35,16,10,21,0.00
2013-3-1,23.9,23.0,20.8,21.4,20.4,16.8,94,90,84,29.82,29.68,17,10,21,0.00
2013-3-2,25.2,18.6,9.5,17.3,13.7,7.8,95,81,69,29.81,29.75,10,6,11,0.00
2013-3-3,32.5,18.8,8.1,18.4,10.0,2.6,97,72,44,29.75,29.68,8,2,10,0.00
2013-3-4,34.2,22.9,7.7,25.0,17.5,3.6,91,80,65,29.72,29.63,13,5,16,0.00
2013-3-5,30.9,28.3,24.8,29.4,26.6,24.5,99,93,81,29.64,29.48,15,8,19,0.00
2013-3-6,33.8,28.9,24.8,29.0,26.5,24.2,100,91,80,29.89,29.64,12,8,15,0.00
2013-3-7,40.6,29.8,20.1,25.3,22.5,17.7,100,76,53,30.02,29.88,5,2,8,0.00
2013-3-8,43.5,29.5,15.1,31.8,25.4,14.9,99,86,59,30.05,29.88,11,4,15,0.00
2013-3-9,41.5,35.1,28.8,36.2,31.6,25.4,100,87,74,29.88,29.42,13,7,20,0.07
2013-3-10,44.6,40.4,36.3,44.3,40.1,36.1,100,99,95,29.43,29.23,13,4,17,0.63
2013-3-11,39.6,34.2,30.0,39.3,32.8,24.6,99,95,80,29.34,29.14,10,3,14,0.04
2013-3-12,35.1,28.9,24.1,30.1,26.2,22.4,100,90,65,29.58,29.34,18,6,18,0.02
2013-3-13,32.9,24.5,18.0,22.3,14.4,10.4,94,68,43,29.89,29.58,15,8,20,0.00
2013-3-14,38.3,27.3,15.4,29.2,20.6,11.1,100,77,52,29.89,29.67,11,3,15,0.00
2013-3-15,39.7,31.5,27.1,36.5,30.6,26.9,100,96,87,29.66,29.40,11,4,16,0.06
2013-3-16,32.2,27.7,23.7,29.8,24.4,20.2,100,88,68,29.72,29.39,14,7,20,0.00
2013-3-17,32.0,25.7,18.3,24.6,18.2,11.0,88,73,60,29.83,29.61,13,8,17,0.00
2013-3-18,34.9,28.2,17.8,34.6,26.5,12.9,100,93,78,29.61,29.19,19,8,29,0.19
2013-3-19,31.1,20.3,11.8,15.3,11.7,7.9,86,70,50,29.62,29.31,20,12,28,0.06
2013-3-20,21.9,15.2,9.0,10.2,5.6,1.6,73,65,55,29.65,29.60,16,7,21,0.00
2013-3-21,30.7,18.9,7.7,16.0,9.8,2.4,80,68,52,29.63,29.59,12,5,15,0.00
2013-3-22,38.5,25.1,12.2,19.9,14.5,8.0,84,66,38,29.68,29.61,6,3,9,0.00
2013-3-23,43.5,29.3,0.0,28.5,20.4,14.2,91,71,43,29.73,29.66,6,2,9,0.00
2013-3-24,35.1,31.6,20.7,30.4,27.3,18.7,96,84,77,30.34,29.75,17,12,23,1.12
2013-3-25,33.4,30.0,26.2,28.4,26.1,22.8,97,85,75,30.07,29.77,18,10,21,0.00
2013-3-26,40.3,34.3,29.5,30.1,27.4,25.1,87,76,66,30.23,30.06,10,6,12,0.00
2013-3-27,42.1,35.2,27.0,27.7,24.1,19.8,79,65,48,30.30,30.22,10,4,11,0.00
2013-3-28,49.3,36.5,27.1,27.4,22.7,18.8,79,60,39,30.32,30.27,7,3,9,0.00
2013-3-29,52.5,39.3,26.6,29.4,23.4,19.0,77,56,33,30.30,30.23,6,2,8,0.00
2013-3-30,56.3,43.9,29.1,43.7,33.1,21.7,95,67,51,30.24,29.83,16,7,21,0.00
2013-3-31,52.9,41.0,20.7,44.0,36.4,18.7,100,85,60,30.45,29.71,14,7,21,1.12
2013-4-1,37.2,30.5,26.1,24.0,17.9,14.0,91,61,42,30.25,29.97,12,7,23,0.00
2013-4-2,42.1,31.5,21.9,20.5,16.3,13.5,80,56,35,30.38,30.24,12,5,17,0.00
2013-4-3,46.6,34.3,22.5,25.0,17.4,8.5,82,54,25,30.51,30.35,12,5,16,0.00
2013-4-4,61.2,44.2,29.3,38.0,27.0,11.3,72,53,38,30.35,30.04,12,6,18,0.00
2013-4-5,48.0,38.3,28.6,32.9,28.0,22.8,97,68,46,30.31,30.10,10,6,13,0.00
2013-4-6,64.4,47.8,33.4,52.9,37.6,23.9,100,70,48,30.23,29.64,24,12,30,0.15
2013-4-7,58.8,44.3,35.1,51.7,38.4,33.8,100,81,52,30.06,29.65,13,7,22,0.01
2013-4-8,57.4,42.6,35.1,49.8,41.0,33.0,100,94,75,30.08,29.66,14,6,16,0.54
2013-4-9,39.9,37.9,36.3,39.7,37.7,36.1,99,99,99,30.11,29.96,18,9,21,1.20
2013-4-10,37.6,35.8,33.3,37.3,35.5,33.0,99,99,99,30.19,29.92,20,11,25,0.89
2013-4-11,37.2,36.1,34.5,37.0,35.9,34.3,99,99,99,30.00,29.65,21,12,30,0.41
2013-4-12,41.7,37.0,34.2,40.1,35.8,31.7,100,96,83,30.16,29.60,14,5,18,0.12
2013-4-13,39.7,35.1,0.0,32.4,30.3,27.6,95,83,62,30.35,30.15,14,6,20,0.02
2013-4-14,52.9,38.5,30.4,50.0,36.4,28.5,100,92,81,30.37,30.00,18,8,24,0.08
2013-4-15,65.3,52.2,40.3,55.7,48.3,38.8,100,88,53,30.34,29.99,27,7,36,0.61
2013-4-16,54.5,43.3,33.6,40.0,36.7,33.4,100,80,53,30.66,30.32,9,4,12,0.01
2013-4-17,43.0,40.6,38.1,42.7,38.0,33.3,100,91,74,30.67,30.22,17,8,25,0.79
2013-4-18,57.7,46.8,38.8,57.5,46.3,35.3,100,98,86,30.22,29.75,18,6,28,1.15
2013-4-19,41.5,35.8,29.8,35.5,30.7,26.0,100,82,68,30.25,29.76,18,11,30,0.00
2013-4-20,46.4,34.9,25.5,27.4,22.3,17.3,85,63,36,30.76,30.25,11,6,15,0.00
2013-4-21,50.0,39.8,29.1,33.7,28.4,23.9,92,66,44,30.86,30.63,17,10,23,0.00
2013-4-22,68.0,53.5,40.6,45.1,37.4,32.7,75,57,37,30.65,30.40,15,9,21,0.00
2013-4-23,55.2,44.2,36.7,51.9,42.0,34.8,100,93,62,30.40,30.27,10,6,15,0.39
2013-4-24,55.8,43.2,33.8,34.8,29.7,23.8,88,63,32,30.42,30.30,11,6,17,0.00
2013-4-25,54.5,44.8,38.7,38.3,34.1,28.8,95,69,42,30.66,30.35,12,6,19,0.01
2013-4-26,68.9,53.9,37.9,50.9,40.5,29.1,79,62,48,30.66,30.54,23,11,30,0.09
2013-4-27,71.6,58.2,44.8,52.0,47.2,43.2,100,70,43,30.63,30.40,13,5,18,0.00
2013-4-28,74.3,59.0,50.4,55.0,48.7,42.9,100,71,46,30.40,30.20,10,3,14,0.00
2013-4-29,72.7,61.6,50.4,59.4,55.0,50.1,99,81,54,30.26,30.13,16,6,21,0.05
2013-4-30,87.6,73.5,61.7,64.4,59.8,54.3,95,67,36,30.31,30.11,21,14,30,0.00
2013-5-1,86.0,73.1,51.1,61.7,57.2,44.2,85,61,32,30.58,30.31,16,8,21,0.00
2013-5-2,57.4,47.7,39.4,51.9,43.5,38.2,100,86,65,30.63,30.55,14,8,19,0.51
2013-5-3,48.0,42.7,37.6,47.8,42.4,37.3,100,99,96,30.56,30.35,11,7,17,0.51
2013-5-4,71.8,58.3,46.0,53.8,49.1,45.0,100,75,49,30.43,30.34,11,6,16,0.01
2013-5-5,73.6,60.4,45.9,49.9,46.1,40.7,100,64,39,30.45,30.40,10,5,17,0.00
2013-5-6,78.8,63.3,48.0,49.9,41.1,33.1,88,50,25,30.45,30.38,8,3,11,0.00
2013-5-7,80.6,65.3,47.7,52.1,44.5,38.8,90,53,28,30.45,30.38,9,3,12,0.00
2013-5-8,84.6,66.6,46.4,57.4,48.6,44.9,100,60,29,30.43,30.35,7,2,13,0.00
2013-5-9,70.3,57.9,43.3,63.6,53.0,43.1,100,85,59,30.35,30.26,15,4,18,0.28
2013-5-10,49.1,44.8,39.7,47.7,44.4,39.5,100,98,93,30.35,30.20,13,7,17,0.79
2013-5-11,53.8,46.2,38.3,51.7,39.3,30.6,100,80,47,30.38,30.14,16,6,22,0.01
2013-5-12,55.9,45.1,37.0,34.3,30.8,27.2,79,60,38,30.46,30.38,11,6,15,0.00
2013-5-13,66.7,48.8,32.4,41.5,34.3,27.0,100,64,28,30.53,30.32,10,4,16,0.00
2013-5-14,87.8,69.3,46.8,64.4,52.5,36.0,76,58,37,30.32,29.96,16,7,22,0.02
2013-5-15,83.1,72.8,55.9,64.4,52.3,44.0,80,52,30,30.24,29.96,9,4,14,0.00
2013-5-16,88.0,68.3,55.2,56.7,47.5,34.2,80,51,29,30.37,30.22,11,5,17,0.00
2013-5-17,64.6,56.4,48.4,52.2,47.1,34.5,100,73,46,30.48,30.35,10,6,15,0.30
2013-5-18,80.8,65.3,51.4,65.8,57.2,48.0,96,77,56,30.44,30.34,9,4,15,0.00
2013-5-19,85.8,71.9,56.7,71.3,64.7,56.4,100,80,60,30.34,30.08,20,7,27,0.01
2013-5-20,87.8,76.6,68.0,68.2,64.3,60.9,96,69,44,30.15,30.06,17,7,25,0.06
2013-5-21,81.9,70.3,62.2,68.2,63.7,59.1,100,82,52,30.09,30.01,20,7,27,0.11
2013-5-22,70.3,61.4,53.8,69.9,60.7,53.5,100,98,89,30.14,30.01,7,2,9,0.63
2013-5-23,57.6,50.1,39.2,53.9,47.2,37.0,100,91,66,30.66,30.13,14,6,21,0.07
2013-5-24,67.5,49.5,33.8,45.9,38.6,33.6,99,70,39,30.78,30.66,8,3,11,0.00
2013-5-25,63.7,51.9,41.0,43.7,38.8,32.8,91,64,39,30.74,30.64,8,3,12,0.00
2013-5-26,67.6,53.9,38.1,50.7,43.3,35.0,100,70,45,30.65,30.52,12,4,17,0.02
2013-5-27,54.1,51.6,50.0,52.4,49.6,43.3,100,93,72,30.52,30.25,11,6,17,0.04
2013-5-28,75.6,61.7,50.4,71.4,61.2,50.1,100,98,83,30.25,30.07,10,2,14,1.28
2013-5-29,84.2,73.3,64.0,73.3,68.1,63.8,99,86,62,30.29,30.13,12,5,17,0.01
2013-5-30,85.6,75.6,63.1,74.6,69.9,62.9,99,84,64,30.27,30.13,23,11,31,0.20
2013-5-31,77.9,69.3,62.8,71.7,66.1,62.5,100,90,68,30.22,30.07,18,8,26,0.20
2013-6-1,78.8,70.6,61.2,70.0,66.8,60.9,100,89,68,30.08,30.00,14,6,21,0.09
2013-6-2,61.2,55.4,46.4,60.9,51.4,46.1,100,87,64,30.38,30.04,9,5,11,0.00
2013-6-3,78.1,59.4,42.6,55.6,46.5,40.4,100,68,34,30.45,30.37,7,3,10,0.00
2013-6-4,74.8,60.5,50.0,52.1,47.0,42.3,82,64,43,30.53,30.43,9,3,14,0.00
2013-6-5,67.5,57.3,51.4,55.6,51.6,47.5,100,82,60,30.50,30.32,8,3,14,0.00
2013-6-6,62.4,55.8,51.6,56.5,53.4,49.3,100,92,77,30.32,30.25,5,2,8,0.00
2013-6-7,76.3,62.3,49.6,56.1,48.8,41.5,100,67,34,30.33,30.27,8,3,12,0.00
2013-6-8,78.8,62.5,46.6,57.1,50.8,45.4,100,70,38,30.38,30.27,5,2,7,0.00
2013-6-9,80.6,67.4,53.1,65.7,59.1,51.7,100,77,55,30.38,30.19,13,4,21,0.07
2013-6-10,85.6,70.0,60.4,70.0,65.5,60.2,100,88,59,30.22,30.12,5,2,7,0.00
2013-6-11,88.7,74.7,59.9,70.6,66.1,59.6,99,78,53,30.27,30.16,7,2,11,0.00
2013-6-12,79.5,70.3,62.4,70.5,66.9,62.1,100,90,71,30.27,29.99,14,4,18,0.02
2013-6-13,78.4,66.7,55.4,63.9,59.4,53.3,100,80,58,30.43,30.04,10,4,13,0.00
2013-6-14,82.9,66.2,54.0,62.0,55.7,50.3,100,72,48,30.49,30.36,7,3,11,0.00
2013-6-15,81.9,68.1,54.7,74.6,64.4,51.3,100,89,74,30.42,30.17,9,4,13,0.02
2013-6-16,89.8,76.1,63.1,71.5,64.0,57.4,99,72,37,30.27,30.19,8,3,14,0.00
2013-6-17,91.6,71.8,56.8,71.9,61.3,55.9,97,74,40,30.32,30.20,8,2,12,0.01
2013-6-18,74.3,62.9,54.1,61.3,53.8,43.5,100,75,48,30.43,30.30,8,4,12,0.00
2013-6-19,78.8,64.4,48.9,55.2,49.4,42.3,91,62,40,30.49,30.42,8,3,15,0.00
2013-6-20,89.1,72.7,57.4,66.9,56.4,40.4,72,58,43,30.49,30.41,9,5,14,0.00
2013-6-21,77.5,70.6,64.8,72.2,67.4,58.7,100,90,72,30.47,30.24,19,5,26,0.05
2013-6-22,82.8,72.1,65.8,76.8,70.6,65.5,100,95,81,30.47,30.29,16,4,22,0.01
2013-6-23,89.4,76.2,64.4,78.6,71.5,64.1,100,87,68,30.37,30.22,11,5,16,0.00
2013-6-24,84.7,73.9,68.2,74.5,70.6,67.9,100,91,69,30.37,30.18,8,3,12,0.00
2013-6-25,89.2,72.5,65.1,77.5,70.5,64.8,100,94,68,30.29,30.14,10,3,15,0.02
2013-6-26,87.1,72.6,67.6,75.1,70.2,67.3,100,93,65,30.17,30.05,12,3,16,0.01
2013-6-27,90.7,75.9,66.4,77.9,71.6,66.1,100,88,58,30.12,30.03,8,2,11,0.04
2013-6-28,80.6,71.5,63.7,68.3,66.1,63.4,100,85,61,30.06,29.94,8,3,16,0.02
2013-6-29,76.6,67.1,63.3,66.3,62.6,59.0,100,87,59,30.15,29.94,12,5,17,0.02
2013-6-30,81.5,69.4,60.1,64.0,56.4,47.8,91,67,39,30.36,30.14,9,5,13,0.00
2013-7-1,82.2,70.1,58.3,59.3,53.4,48.5,82,59,38,30.43,30.35,8,4,15,0.00
2013-7-2,78.4,64.8,55.6,60.7,54.4,46.9,100,72,39,30.44,30.39,7,2,11,0.00
2013-7-3,72.5,65.0,59.7,67.9,62.5,54.3,100,92,72,30.40,30.35,5,2,8,0.00
2013-7-4,87.3,73.7,59.7,69.9,64.4,59.4,100,77,45,30.41,30.35,7,2,11,0.00
2013-7-5,88.7,75.3,62.2,70.8,66.2,62.0,100,76,51,30.40,30.33,11,3,15,0.01
2013-7-6,91.6,76.5,62.6,72.3,67.0,62.3,100,77,43,30.38,30.28,7,3,11,0.00
2013-7-7,91.0,78.2,68.0,77.5,72.6,67.7,100,85,60,30.32,30.25,7,2,11,0.00
2013-7-8,91.4,77.8,71.1,82.2,75.1,70.8,100,92,68,30.31,30.23,8,3,12,0.04
2013-7-9,86.5,75.0,68.2,79.8,73.9,67.9,100,97,78,30.32,30.15,7,3,14,0.00
2013-7-10,81.3,74.7,61.7,76.3,67.8,61.4,100,81,56,30.33,30.15,9,4,12,0.00
2013-7-11,86.2,70.3,56.1,66.4,59.8,52.8,99,74,46,30.43,30.33,6,2,9,0.00
2013-7-12,91.6,71.0,53.2,64.8,58.5,50.6,100,71,35,30.47,30.39,6,2,11,0.00
2013-7-13,85.5,73.5,59.5,67.0,63.0,58.1,100,73,45,30.48,30.40,8,4,12,0.00
2013-7-14,90.1,77.2,63.5,75.0,69.7,63.2,100,80,58,30.54,30.47,7,2,10,0.00
2013-7-15,94.6,80.4,68.4,81.3,75.1,68.1,100,86,60,30.58,30.53,9,2,13,0.00
2013-7-16,96.3,83.2,72.0,81.9,77.7,71.7,100,85,61,30.60,30.53,4,2,8,0.00
2013-7-17,96.6,85.0,75.0,82.0,77.6,72.0,100,81,60,30.61,30.47,5,2,9,0.00
2013-7-18,95.7,84.9,73.8,81.2,77.2,73.5,100,80,57,30.48,30.22,6,2,14,0.00
2013-7-19,93.7,84.2,74.3,79.2,75.9,70.8,94,78,60,30.23,30.04,11,5,19,0.02
2013-7-20,90.5,74.7,62.8,71.5,66.9,61.3,100,80,50,30.27,30.12,5,2,9,0.00
2013-7-21,85.1,69.0,62.1,71.8,64.8,59.8,100,88,62,30.27,30.17,9,2,13,0.04
2013-7-22,88.0,75.5,62.4,76.1,69.9,62.1,99,85,61,30.18,29.99,7,3,14,0.02
2013-7-23,75.9,68.6,58.1,68.3,62.6,57.5,100,83,59,30.29,29.99,10,4,12,0.01
2013-7-24,81.7,64.3,52.2,60.0,56.2,51.9,100,79,46,30.36,30.28,4,2,7,0.01
2013-7-25,80.8,67.7,52.3,66.7,60.5,52.1,100,80,58,30.37,30.25,7,3,11,0.00
2013-7-26,75.0,65.8,58.6,72.1,64.8,58.4,100,97,83,30.27,30.14,10,3,17,0.48
2013-7-27,63.5,57.6,52.2,59.1,54.1,51.0,100,89,66,30.21,30.14,9,4,13,0.00
2013-7-28,70.7,59.3,51.3,58.2,54.3,51.0,99,85,62,30.27,30.11,8,4,13,0.00
2013-7-29,82.8,65.0,52.5,64.3,58.4,52.2,100,82,51,30.46,30.27,5,2,8,0.00
2013-7-30,77.5,65.2,56.8,67.5,62.3,56.6,100,92,68,30.46,30.36,6,3,11,0.14
2013-7-31,82.2,67.0,60.6,72.2,65.4,60.3,99,95,72,30.36,30.22,7,1,11,0.43
2013-8-1,83.7,69.0,59.5,67.6,61.4,59.0,100,80,49,30.27,29.90,7,2,9,0.00
2013-8-2,84.4,69.3,0.0,73.1,65.0,59.3,100,84,56,29.98,29.82,5,2,9,0.41
2013-8-3,81.0,67.9,0.0,64.3,58.9,55.8,100,76,47,30.08,29.89,7,2,9,0.00
2013-8-4,81.3,66.2,56.7,64.5,60.2,56.4,100,83,49,30.07,29.98,5,2,9,0.00
2013-8-5,75.9,64.9,57.9,67.5,62.5,57.6,100,92,74,29.99,29.73,9,4,14,0.00
2013-8-6,85.3,73.4,62.6,75.2,69.7,62.3,100,89,69,29.74,29.66,7,2,13,0.00
2013-8-7,85.5,75.6,63.7,77.0,70.7,63.4,100,86,58,29.83,29.62,8,3,10,0.00
2013-8-8,81.7,69.4,59.2,66.9,59.5,53.5,99,75,45,29.91,29.82,6,2,9,0.00
2013-8-9,83.7,69.5,55.6,70.2,62.5,52.3,100,80,61,29.90,29.83,6,2,10,0.00
2013-8-10,81.0,67.8,55.0,67.1,60.9,54.8,100,82,53,30.00,29.91,5,1,7,0.00
2013-8-11,78.6,65.9,55.8,69.7,63.8,55.5,100,94,72,29.99,29.87,5,1,7,0.06
2013-8-12,84.9,71.5,63.7,73.7,67.6,62.4,100,89,58,29.88,29.74,6,2,8,0.52
2013-8-13,72.1,62.1,52.3,63.0,54.0,50.3,100,77,54,30.01,29.82,7,4,14,0.00
2013-8-14,79.9,62.6,48.4,57.5,53.8,48.1,99,77,44,30.06,29.97,6,2,8,0.00
2013-8-15,83.1,67.6,54.3,63.5,58.3,54.0,100,76,44,29.99,29.93,5,2,8,0.00
2013-8-16,87.3,68.6,56.3,65.0,59.6,56.0,100,77,44,30.04,29.95,5,1,7,0.00
2013-8-17,85.1,68.1,53.6,69.9,60.0,53.3,100,79,47,30.09,30.02,5,2,8,0.00
2013-8-18,84.2,69.3,53.2,72.3,60.9,53.0,99,78,51,30.06,29.94,8,2,10,0.00
2013-8-19,85.8,70.8,56.8,70.1,64.6,56.6,100,83,54,29.95,29.87,10,1,10,0.00
2013-8-20,87.6,75.1,63.0,73.0,68.6,62.7,100,82,58,30.09,29.84,14,3,14,0.00
2013-8-21,89.8,78.9,68.0,76.3,72.0,66.6,100,81,60,30.09,29.75,13,4,14,0.01
2013-8-22,82.4,71.5,63.9,77.5,70.4,62.4,100,96,79,30.17,30.04,17,3,17,0.61
2013-8-23,84.6,70.8,59.4,69.2,62.8,59.1,100,79,46,30.21,30.14,8,2,10,0.00
2013-8-24,86.7,72.1,59.7,71.8,65.4,59.5,100,82,56,30.28,30.20,10,4,11,0.01
2013-8-25,91.2,78.9,67.3,76.3,69.6,60.9,95,74,51,30.24,30.14,16,5,16,0.00
2013-8-26,92.1,79.4,71.4,80.6,73.6,68.0,92,83,66,30.16,30.01,13,4,13,0.00
2013-8-27,95.5,84.3,73.8,81.3,77.2,73.5,100,81,61,30.01,29.84,14,3,14,0.00
2013-8-28,90.5,77.9,68.5,77.9,73.8,68.3,100,88,63,30.08,29.87,9,2,10,0.00
2013-8-29,93.0,77.0,64.0,78.3,71.0,63.8,100,84,56,30.11,30.00,11,2,11,0.00
2013-8-30,96.8,75.7,67.1,81.8,72.4,66.8,100,91,57,30.02,29.80,28,3,28,0.50
2013-8-31,82.4,70.3,63.1,73.7,68.2,62.9,100,94,74,29.90,29.82,8,1,8,0.00
2013-9-1,86.9,72.7,61.0,77.0,69.1,60.7,100,90,68,29.84,29.74,10,2,14,0.01
2013-9-2,75.2,66.7,56.3,66.6,62.1,56.0,100,86,64,29.83,29.73,7,4,10,1.15
2013-9-3,80.1,63.6,50.5,62.5,56.7,50.3,100,82,49,29.91,29.82,4,1,7,0.00
2013-9-4,87.3,67.8,54.1,68.6,61.8,53.9,99,84,53,29.94,29.84,5,1,9,0.00
2013-9-5,77.7,65.6,50.7,70.2,57.3,50.3,100,78,48,30.09,29.94,7,2,10,0.00
2013-9-6,87.3,69.8,50.7,72.9,63.2,50.4,99,82,60,30.04,29.81,12,3,15,0.00
2013-9-7,84.9,74.1,66.4,75.2,70.5,66.1,100,90,65,29.81,29.71,7,2,13,0.01
2013-9-8,73.8,68.2,65.1,70.4,67.4,64.9,100,97,83,29.88,29.78,4,2,11,0.00
2013-9-9,92.3,78.6,66.9,81.6,74.6,66.7,99,88,69,29.80,29.40,6,2,15,0.00
2013-9-10,96.6,85.1,74.7,76.3,70.6,67.4,83,64,41,29.80,29.55,4,2,19,0.00
2013-9-11,86.4,75.6,68.9,73.4,70.5,68.0,100,85,61,29.92,29.62,4,1,11,0.00
2013-9-12,80.1,67.7,58.8,70.4,62.4,50.2,100,84,58,29.94,29.78,9,2,17,0.00
2013-9-13,69.1,56.8,45.9,51.1,48.4,45.6,100,76,46,30.02,29.94,6,2,12,0.00
2013-9-14,73.4,58.4,41.5,55.8,48.8,41.3,99,74,47,29.98,29.82,4,1,11,0.00
2013-9-15,59.4,56.0,52.7,58.7,54.2,48.5,100,94,71,30.02,29.80,5,1,13,0.38
2013-9-16,68.2,54.5,44.1,54.8,48.9,43.8,100,83,56,30.18,30.02,5,2,11,0.00
2013-9-17,77.0,57.3,43.7,64.8,53.0,43.4,100,87,62,30.14,29.92,5,2,13,0.00
2013-9-18,79.9,67.6,57.0,71.3,64.8,56.4,100,91,74,29.92,29.71,7,3,18,0.12
2013-9-19,84.6,72.7,66.7,79.3,71.3,66.5,100,96,82,29.74,29.55,8,3,18,0.65
2013-9-20,75.4,66.4,56.8,71.0,63.8,56.6,100,92,74,29.63,29.53,3,1,13,0.03
2013-9-21,60.6,54.6,47.3,56.4,51.5,47.0,100,90,73,29.75,29.62,5,2,11,0.00
2013-9-22,70.9,54.0,43.9,51.8,47.3,43.6,100,81,45,29.87,29.75,3,1,8,0.00
2013-9-23,75.0,54.1,21.2,68.8,49.8,5.1,100,87,49,29.93,29.84,97,2,97,0.00
2013-9-24,72.3,58.7,49.8,59.1,53.8,49.6,100,86,57,29.87,29.77,4,1,11,0.01
2013-9-25,73.2,58.8,49.3,63.8,53.9,49.0,100,86,56,29.81,29.75,2,0,9,0.01
2013-9-26,77.9,61.4,49.3,64.7,55.4,49.0,99,84,44,29.89,29.78,4,1,12,0.01
2013-9-27,80.4,64.5,50.9,62.3,57.3,50.6,99,80,51,29.96,29.86,6,2,15,0.01
2013-10-14,63.0,48.7,36.5,52.5,44.3,36.2,100,86,60,30.18,29.90,4,1,14,0.02
2013-10-15,60.8,53.4,45.7,60.5,52.8,45.4,100,98,92,29.90,29.51,5,2,15,0.45
2013-10-16,54.7,49.5,45.5,54.7,49.2,45.2,100,99,95,29.69,29.55,3,1,14,0.02
2013-10-17,51.6,45.9,39.2,51.2,45.6,38.9,100,99,94,29.68,29.57,3,1,8,0.25
2013-10-18,50.0,43.3,38.1,48.4,41.6,37.9,100,94,82,29.69,29.56,4,1,14,0.00
2013-10-19,57.0,44.4,36.7,44.2,39.8,36.4,100,86,54,29.66,29.50,6,1,18,0.00
2013-10-20,51.8,43.4,32.9,49.2,41.0,32.7,100,92,65,29.61,29.47,5,1,14,0.07
2013-10-21,48.0,40.4,29.7,47.8,35.1,25.2,100,81,65,29.68,29.50,4,2,21,0.00
2013-10-22,47.7,36.0,27.0,34.8,30.0,25.2,95,80,57,29.71,29.64,3,1,11,0.00
2013-10-23,45.3,36.5,27.5,33.2,29.9,26.1,100,78,52,29.75,29.66,5,2,11,0.00
2013-10-24,44.6,36.2,29.5,32.5,29.7,26.2,95,78,59,30.02,29.74,5,2,11,0.00
2013-10-25,53.4,40.2,25.5,34.8,29.8,24.7,100,69,48,30.10,29.67,6,2,21,0.18
2013-10-26,52.3,46.0,39.7,40.8,33.5,29.7,72,62,51,29.82,29.54,9,4,21,0.02
2013-10-27,57.4,42.5,28.2,36.9,32.4,27.4,100,70,44,29.81,29.67,5,1,15,0.00
2013-10-28,44.8,41.5,36.1,39.3,35.6,31.4,93,80,70,30.15,29.79,6,3,17,0.00
2013-10-29,53.6,43.3,35.6,45.2,40.3,31.5,100,89,72,30.13,29.88,5,1,14,0.00
2013-10-30,59.5,51.2,45.3,58.9,51.0,44.9,100,99,96,29.88,29.50,11,2,27,0.03
2013-10-31,61.9,56.9,43.5,61.6,56.7,43.3,99,99,99,29.51,29.00,6,2,16,0.84
2013-11-1,45.9,43.3,41.2,45.7,43.1,40.9,100,99,97,29.48,29.08,5,2,19,0.07
2013-11-2,46.2,40.7,38.1,44.5,40.0,37.9,100,98,87,29.88,29.47,5,2,11,0.02
2013-11-3,53.1,41.7,28.8,45.5,37.8,28.5,99,87,55,30.03,29.88,8,2,21,0.00
2013-11-4,56.1,49.0,42.8,47.7,43.0,39.1,95,80,64,29.99,29.80,14,6,27,0.00
2013-11-5,55.4,51.4,47.7,52.5,50.1,47.4,100,95,84,29.99,29.65,11,4,27,0.05
2013-11-6,55.4,44.3,31.1,55.1,42.9,27.1,100,95,77,29.88,29.49,11,5,26,0.48
2013-11-7,42.6,34.4,26.1,35.6,30.9,25.8,100,87,72,29.95,29.88,4,1,13,0.00
2013-11-8,46.6,37.5,25.3,37.4,32.4,25.1,100,83,67,30.03,29.59,13,4,26,0.00
2013-11-9,53.6,47.2,40.1,43.6,38.9,29.6,84,73,61,29.80,29.50,12,5,28,0.02
2013-11-10,52.7,42.3,36.0,34.6,32.2,29.4,79,68,48,30.04,29.79,8,3,17,0.00
2013-11-11,43.7,33.5,23.2,37.1,29.2,18.0,99,84,72,30.24,29.78,10,4,17,0.10
2013-11-12,32.5,24.3,17.2,21.6,17.6,14.2,93,76,57,30.40,30.24,7,3,14,0.00
2013-11-13,43.0,30.1,17.2,23.3,18.4,13.8,87,64,36,30.27,29.81,8,4,23,0.02
2013-11-14,47.3,39.7,31.8,32.3,27.4,20.2,71,61,51,29.81,29.63,5,3,17,0.00
2013-11-15,57.6,44.2,36.3,38.0,33.7,29.0,94,68,46,29.68,29.62,6,3,13,0.00
2013-11-16,59.0,49.4,38.1,58.7,48.9,36.3,100,98,92,29.65,29.27,16,8,34,1.92
2013-11-17,64.0,52.4,39.0,63.8,51.7,37.4,100,98,87,29.61,29.02,15,6,27,1.54
2013-11-18,39.4,33.7,26.4,38.1,29.1,23.4,95,83,69,30.16,29.60,9,5,24,0.78
2013-11-19,41.9,30.6,19.8,31.8,26.5,19.6,100,86,58,30.28,30.16,6,2,12,0.00
2013-11-20,43.5,36.2,31.1,35.6,31.7,28.5,100,85,59,30.18,30.02,12,5,24,0.23
2013-11-21,45.9,41.0,36.0,44.9,40.4,35.7,100,98,90,30.15,30.02,6,2,10,0.02
2013-11-22,39.0,31.7,23.0,38.8,28.7,19.2,100,89,72,30.38,30.14,10,5,18,0.02
2013-11-23,23.7,18.0,10.8,19.5,10.3,3.9,86,71,59,30.58,30.29,13,7,22,0.00
2013-11-24,27.7,17.4,5.9,10.3,6.9,2.9,90,64,42,30.56,30.17,8,3,22,0.73
2013-11-25,29.3,25.4,19.9,27.5,21.5,9.4,100,86,57,30.17,29.92,7,4,24,1.04
2013-11-26,30.7,24.9,12.6,28.8,19.9,5.9,100,81,59,30.08,29.92,12,5,19,0.00
2013-11-27,25.9,17.2,8.1,15.4,10.7,4.8,90,76,63,30.13,30.06,8,4,14,0.00
2013-11-28,28.6,22.0,13.1,18.6,15.7,11.0,94,77,64,30.38,30.06,6,2,11,0.00
2013-11-29,32.5,22.7,8.6,24.5,17.5,8.0,100,82,57,30.51,30.25,7,2,12,0.00
2013-11-30,47.8,36.0,27.7,34.9,29.7,23.2,94,79,59,30.26,29.94,7,3,16,0.17
2013-12-1,43.9,33.5,26.4,32.1,29.1,24.7,100,85,60,30.04,29.89,4,1,9,0.00
2013-12-2,41.4,33.0,24.4,38.3,30.7,24.2,100,92,73,29.89,29.69,7,2,14,0.03
2013-12-3,40.3,37.7,33.1,40.0,37.4,32.8,99,99,99,29.69,29.61,7,3,16,0.02
2013-12-4,51.3,43.4,35.6,51.0,43.2,35.4,99,99,99,29.68,29.40,7,3,25,0.25
2013-12-5,35.4,23.8,15.3,35.2,18.8,10.2,100,81,68,30.15,29.53,10,5,29,1.92
2013-12-6,16.9,11.5,6.8,10.7,5.7,1.2,88,77,65,30.42,30.13,6,4,12,0.00
2013-12-7,17.6,7.4,0.1,5.2,1.2,-2.9,89,76,56,30.57,30.42,5,2,11,0.00
2013-12-8,23.7,16.8,4.1,23.5,14.4,1.2,100,90,68,30.50,29.83,7,2,17,0.00
2013-12-9,23.7,11.7,-4.2,23.5,7.4,-8.4,100,83,60,30.07,29.80,7,3,23,0.13
2013-12-10,21.0,7.3,-8.0,12.7,1.9,-11.1,91,78,64,30.16,29.83,10,4,30,0.71
2013-12-11,14.0,6.4,-5.8,11.6,0.4,-11.2,95,76,60,30.40,30.14,10,3,14,0.00
2013-12-12,20.1,7.9,-6.9,10.7,1.3,-11.0,83,74,56,30.37,30.06,6,2,23,0.10
2013-12-13,27.7,20.4,12.4,24.3,17.2,9.3,95,87,70,30.09,30.02,7,3,14,0.00
2013-12-14,27.9,23.9,18.3,26.6,23.3,18.1,100,97,92,30.05,29.82,7,3,21,0.00
2013-12-15,19.6,11.1,2.5,19.6,4.7,-5.5,100,75,57,30.01,29.79,6,3,18,0.07
2013-12-16,16.9,7.9,-4.0,11.8,2.1,-9.1,94,77,50,30.03,29.89,8,2,14,0.00
2013-12-17,35.2,24.2,13.1,27.1,20.1,11.8,100,85,67,29.94,29.79,6,3,21,0.05
2013-12-18,34.5,24.4,10.8,27.8,16.7,7.0,87,73,44,30.02,29.69,14,4,34,1.54
2013-12-19,32.5,30.2,25.7,32.2,28.6,24.7,100,94,83,29.87,29.70,6,2,15,0.00
2013-12-20,31.6,27.4,23.9,31.4,27.2,23.7,99,99,99,29.77,29.68,0,0,0,0.00
2013-12-21,32.0,27.6,23.7,31.8,27.3,23.5,100,99,99,29.79,29.57,0,0,0,0.00
2013-12-22,30.6,24.7,18.5,30.6,24.4,17.8,100,99,95,30.00,29.55,0,0,0,0.00
2013-12-23,19.0,10.0,-3.1,18.4,7.6,-6.8,97,90,81,30.27,30.00,0,0,0,0.00
2013-12-24,24.1,4.9,-6.7,13.0,0.6,-10.1,91,82,55,30.39,30.19,0,0,0,0.00
2013-12-25,22.5,19.1,10.2,20.7,17.0,8.4,96,91,86,30.19,29.95,0,0,0,0.00
2013-12-26,25.7,20.2,9.1,24.5,17.2,6.4,95,88,81,30.14,29.95,0,0,0,0.00
2013-12-27,37.0,28.7,14.4,31.1,25.1,13.5,100,87,71,30.15,29.90,3,0,12,0.02
2013-12-28,45.3,37.6,28.4,35.0,31.4,26.2,92,79,66,29.95,29.67,10,4,20,0.56
2013-12-29,39.9,21.4,-1.8,31.0,16.4,-6.6,100,81,69,30.09,29.64,14,6,23,0.03
2013-12-30,5.2,-2.2,-11.7,-3.1,-9.2,-16.1,85,72,53,30.19,30.06,3,1,9,0.02
2013-12-31,11.3,3.2,-4.2,2.8,-1.2,-7.4,88,81,63,30.22,30.04,6,1,11,0.00
2014-1-1,15.3,8.1,1.2,13.2,4.4,-7.0,92,84,66,30.22,30.13,7,5,13,0.00
2014-1-2,13.5,6.8,-3.1,7.0,2.1,-8.6,91,81,66,30.28,30.09,8,5,14,0.00